Havana, Cuba
Current Conditions -  °F | °C
As of 4:55 PM on Friday 19 Dec 2014 (Local Time) from MUHA Reporting Station
Few Clouds Few Clouds  
Wind Chill: 26°   Ceiling: Unl
Heat Index: 27°   Visibility: 6mi
Dew Point: 16°   Wind: 12mph
Humidity: 54%   Direction: 50°NE
Pressure: 29.97"   Gusts: NA
Location:  23.12°N, 82.39°W
Report Text: MUHA 192055Z 05010KT 9999 FEW025 26/16 Q1015
Loading
Personal Weather Stations






























Interactive Weather Map New forecast layout! Learn more

10-Day Weather Forecast

Advertisements
Track Severe Weather on mobile